Wetterstation Vordersexau
Wetterdaten: Woche 27.05.13 - 02.06.13 (KW22)
Datum Zeit Temp. A. Feuchte A. Luftdruck Regen Wind Richtung Taupunkt Windchill Windben
27.05.2013 00:00 7,1 C 78 % 1013,5 hPa 0,5 l/m 5,2 km/h N-NO 3,5 C 7,1 C 2,9 km/h
27.05.2013 01:00 7,1 C 78 % 1013,4 hPa 0,5 l/m 0,0 km/h N 3,5 C 7,1 C 0,0 km/h
27.05.2013 02:00 7,3 C 79 % 1013,2 hPa 0,0 l/m 0,0 km/h W 3,9 C 7,3 C 0,0 km/h
27.05.2013 03:00 7,5 C 81 % 1012,8 hPa 0,0 l/m 1,3 km/h SW 4,5 C 7,5 C 0,7 km/h
27.05.2013 04:00 7,6 C 84 % 1012,4 hPa 0,0 l/m 0,0 km/h S-SO 5,1 C 7,6 C 0,0 km/h
27.05.2013 05:00 7,2 C 84 % 1012,2 hPa 0,0 l/m 0,0 km/h O-SO 4,7 C 7,2 C 0,0 km/h
27.05.2013 06:00 6,6 C 82 % 1012,2 hPa 0,0 l/m 0,0 km/h SO 3,8 C 6,6 C 0,0 km/h
27.05.2013 07:00 7,4 C 79 % 1012,4 hPa 0,5 l/m 0,0 km/h O 4,0 C 7,4 C 0,0 km/h
27.05.2013 08:00 10,8 C 84 % 1012,4 hPa 0,0 l/m 0,0 km/h W 8,2 C 10,8 C 0,0 km/h
27.05.2013 09:00 13,9 C 77 % 1012,1 hPa 0,0 l/m 0,0 km/h N-NW 9,9 C 13,9 C 0,0 km/h
27.05.2013 10:00 17,3 C 66 % 1011,6 hPa 0,0 l/m 4,5 km/h S-SW 10,9 C 17,3 C 2,5 km/h
27.05.2013 11:00 20,4 C 53 % 1011,3 hPa 0,0 l/m 18,1 km/h N-NW 10,5 C 17,1 C 10,1 km/h
27.05.2013 12:00 19,6 C 52 % 1011,1 hPa 0,0 l/m 1,3 km/h NO 9,5 C 19,6 C 0,7 km/h
27.05.2013 13:00 20,5 C 44 % 1010,4 hPa 0,0 l/m 2,6 km/h W 7,8 C 20,5 C 1,4 km/h
27.05.2013 14:00 20,5 C 46 % 1010,0 hPa 0,0 l/m 7,1 km/h W-NW 8,5 C 20,2 C 4,0 km/h
27.05.2013 15:00 23,9 C 39 % 1009,3 hPa 0,0 l/m 7,8 km/h W 9,1 C 23,5 C 4,3 km/h
27.05.2013 16:00 25,2 C 37 % 1008,9 hPa 0,0 l/m 11,0 km/h S-SW 9,5 C 24,2 C 6,1 km/h
27.05.2013 17:00 26,4 C 32 % 1008,2 hPa 0,0 l/m 0,0 km/h W-NW 8,4 C 26,4 C 0,0 km/h
27.05.2013 18:00 26,5 C 31 % 1007,8 hPa 0,0 l/m 13,6 km/h N 8,0 C 25,3 C 7,6 km/h
27.05.2013 19:00 25,1 C 33 % 1007,3 hPa 0,0 l/m 0,0 km/h NW 7,7 C 25,1 C 0,0 km/h
27.05.2013 20:00 16,2 C 46 % 1007,0 hPa 0,0 l/m 0,0 km/h O-NO 4,6 C 16,2 C 0,0 km/h
27.05.2013 21:00 11,9 C 65 % 1006,9 hPa 0,0 l/m 0,0 km/h S 5,5 C 11,9 C 0,0 km/h
27.05.2013 22:00 9,7 C 71 % 1006,9 hPa 0,0 l/m 0,0 km/h S 4,7 C 9,7 C 0,0 km/h
27.05.2013 23:00 9,3 C 77 % 1006,7 hPa 0,0 l/m 1,9 km/h SO 5,5 C 9,3 C 1,1 km/h
28.05.2013 00:00 9,0 C 79 % 1006,4 hPa 0,0 l/m 0,0 km/h SO 5,6 C 9,0 C 0,0 km/h
28.05.2013 01:00 8,3 C 81 % 1006,1 hPa 0,0 l/m 0,0 km/h O 5,2 C 8,3 C 0,0 km/h
28.05.2013 02:00 7,1 C 82 % 1005,6 hPa 0,0 l/m 0,0 km/h O-NO 4,2 C 7,1 C 0,0 km/h
28.05.2013 03:00 6,7 C 83 % 1005,4 hPa 0,0 l/m 0,0 km/h O-SO 4,0 C 6,7 C 0,0 km/h
28.05.2013 04:00 7,3 C 84 % 1004,9 hPa 0,0 l/m 0,0 km/h SO 4,8 C 7,3 C 0,0 km/h
28.05.2013 05:00 7,3 C 84 % 1004,6 hPa 0,0 l/m 0,0 km/h O-SO 4,8 C 7,3 C 0,0 km/h
28.05.2013 06:00 6,6 C 84 % 1004,1 hPa 0,0 l/m 0,0 km/h O-NO 4,1 C 6,6 C 0,0 km/h
28.05.2013 07:00 8,1 C 82 % 1004,3 hPa 0,0 l/m 0,0 km/h S-SO 5,2 C 8,1 C 0,0 km/h
28.05.2013 08:00 19,2 C 59 % 1004,0 hPa 0,0 l/m 0,0 km/h S-SW 11,0 C 19,2 C 0,0 km/h
28.05.2013 09:00 23,8 C 47 % 1003,4 hPa 0,0 l/m 0,0 km/h NO 11,8 C 23,8 C 0,0 km/h
28.05.2013 10:00 24,9 C 44 % 1002,6 hPa 0,0 l/m 0,0 km/h NW 11,8 C 24,9 C 0,0 km/h
28.05.2013 11:00 26,9 C 39 % 1002,0 hPa 0,0 l/m 4,5 km/h SW 11,8 C 26,9 C 2,5 km/h
28.05.2013 12:00 25,2 C 39 % 1001,1 hPa 0,0 l/m 2,6 km/h S-SW 10,2 C 25,2 C 1,4 km/h
28.05.2013 13:00 25,1 C 39 % 1000,6 hPa 0,0 l/m 0,0 km/h NW 10,2 C 25,1 C 0,0 km/h
28.05.2013 14:00 25,2 C 40 % 999,6 hPa 0,0 l/m 19,4 km/h N-NW 10,6 C 23,0 C 10,8 km/h
28.05.2013 15:00 27,8 C 36 % 998,5 hPa 0,0 l/m 1,9 km/h N 11,3 C 27,8 C 1,1 km/h
28.05.2013 16:00 28,9 C 30 % 997,9 hPa 0,0 l/m 1,3 km/h W 9,6 C 28,9 C 0,7 km/h
28.05.2013 17:00 13,8 C 73 % 1000,6 hPa 0,0 l/m 8,4 km/h SO 9,0 C 12,6 C 4,7 km/h
28.05.2013 18:00 13,6 C 80 % 1000,8 hPa 2,1 l/m 0,0 km/h S-SW 10,2 C 13,6 C 0,0 km/h
28.05.2013 19:00 13,4 C 82 % 1001,1 hPa 0,5 l/m 5,8 km/h W-SW 10,4 C 13,4 C 3,2 km/h
28.05.2013 20:00 12,4 C 81 % 1001,4 hPa 0,0 l/m 7,8 km/h SW 9,2 C 11,5 C 4,3 km/h
28.05.2013 21:00 10,8 C 83 % 1002,0 hPa 0,0 l/m 20,1 km/h W-NW 8,0 C 4,3 C 11,2 km/h
28.05.2013 22:00 10,3 C 82 % 1002,5 hPa 1,6 l/m 8,4 km/h W-SW 7,4 C 8,9 C 4,7 km/h
28.05.2013 23:00 9,8 C 82 % 1002,5 hPa 0,5 l/m 16,8 km/h S-SW 6,9 C 4,2 C 9,4 km/h
29.05.2013 00:00 9,2 C 81 % 1002,3 hPa 1,6 l/m 25,9 km/h S-SW 6,1 C 0,5 C 14,4 km/h
29.05.2013 01:00 8,8 C 82 % 1002,4 hPa 0,5 l/m 9,1 km/h NW 5,9 C 6,8 C 5,0 km/h
29.05.2013 02:00 8,5 C 84 % 1002,4 hPa 0,0 l/m 12,3 km/h W-SW 6,0 C 4,6 C 6,8 km/h
29.05.2013 03:00 8,2 C 84 % 1002,6 hPa 0,0 l/m 18,1 km/h W-SW 5,7 C 1,7 C 10,1 km/h
29.05.2013 04:00 7,9 C 82 % 1002,4 hPa 0,5 l/m 3,2 km/h W-SW 5,0 C 7,9 C 1,8 km/h
29.05.2013 05:00 7,8 C 81 % 1002,2 hPa 1,0 l/m 1,3 km/h W-NW 4,7 C 7,8 C 0,7 km/h
29.05.2013 06:00 7,8 C 80 % 1002,0 hPa 0,5 l/m 5,2 km/h W 4,6 C 7,8 C 2,9 km/h
29.05.2013 07:00 7,9 C 79 % 1001,8 hPa 1,0 l/m 0,0 km/h W-NW 4,5 C 7,9 C 0,0 km/h
29.05.2013 08:00 8,6 C 80 % 1001,8 hPa 0,0 l/m 12,3 km/h W-NW 5,3 C 4,7 C 6,8 km/h
29.05.2013 09:00 8,6 C 80 % 1002,2 hPa 0,5 l/m 14,3 km/h NW 5,3 C 3,8 C 7,9 km/h
29.05.2013 10:00 8,8 C 81 % 1002,2 hPa 0,5 l/m 15,6 km/h W-NW 5,7 C 3,4 C 8,6 km/h
29.05.2013 11:00 9,8 C 81 % 1002,4 hPa 0,5 l/m 9,7 km/h W 6,7 C 7,6 C 5,4 km/h
29.05.2013 12:00 10,4 C 84 % 1002,4 hPa 1,0 l/m 1,3 km/h N-NO 7,8 C 10,4 C 0,7 km/h
29.05.2013 13:00 10,6 C 83 % 1002,2 hPa 0,5 l/m 0,0 km/h W 7,8 C 10,6 C 0,0 km/h
29.05.2013 14:00 12,2 C 81 % 1002,5 hPa 0,0 l/m 4,5 km/h N-NW 9,0 C 12,2 C 2,5 km/h
29.05.2013 15:00 8,8 C 81 % 1003,1 hPa 2,1 l/m 0,0 km/h S-SO 5,7 C 8,8 C 0,0 km/h
29.05.2013 16:00 15,1 C 75 % 1002,7 hPa 1,0 l/m 0,0 km/h O-SO 10,7 C 15,1 C 0,0 km/h
29.05.2013 17:00 15,6 C 67 % 1002,6 hPa 0,0 l/m 0,0 km/h N-NW 9,5 C 15,6 C 0,0 km/h
29.05.2013 18:00 13,4 C 71 % 1003,1 hPa 0,0 l/m 0,6 km/h NO 8,3 C 13,4 C 0,4 km/h
29.05.2013 19:00 9,2 C 77 % 1003,6 hPa 0,0 l/m 0,0 km/h O-SO 5,4 C 9,2 C 0,0 km/h
29.05.2013 20:00 8,4 C 83 % 1003,8 hPa 1,0 l/m 0,0 km/h SO 5,7 C 8,4 C 0,0 km/h
29.05.2013 21:00 7,7 C 83 % 1004,0 hPa 1,6 l/m 7,8 km/h SO 5,0 C 6,6 C 4,3 km/h
29.05.2013 22:00 7,3 C 83 % 1004,5 hPa 0,0 l/m 0,0 km/h SO 4,6 C 7,3 C 0,0 km/h
29.05.2013 23:00 5,9 C 84 % 1005,0 hPa 0,0 l/m 0,0 km/h SO 3,4 C 5,9 C 0,0 km/h
30.05.2013 00:00 6,9 C 82 % 1005,1 hPa 0,0 l/m 0,0 km/h SO 4,0 C 6,9 C 0,0 km/h
30.05.2013 01:00 6,6 C 82 % 1005,1 hPa 0,0 l/m 0,0 km/h S-SO 3,8 C 6,6 C 0,0 km/h
30.05.2013 02:00 5,6 C 82 % 1005,1 hPa 0,0 l/m 0,0 km/h S-SO 2,8 C 5,6 C 0,0 km/h
30.05.2013 03:00 4,9 C 82 % 1005,0 hPa 0,0 l/m 0,0 km/h S 2,1 C 4,9 C 0,0 km/h
30.05.2013 04:00 6,1 C 79 % 1005,1 hPa 0,0 l/m 0,0 km/h SO 2,7 C 6,1 C 0,0 km/h
30.05.2013 05:00 5,9 C 79 % 1005,1 hPa 0,0 l/m 0,0 km/h S 2,5 C 5,9 C 0,0 km/h
30.05.2013 06:00 5,6 C 78 % 1005,2 hPa 0,0 l/m 0,0 km/h S 2,1 C 5,6 C 0,0 km/h
30.05.2013 07:00 7,3 C 75 % 1005,4 hPa 0,0 l/m 0,0 km/h S-SO 3,2 C 7,3 C 0,0 km/h
30.05.2013 08:00 9,0 C 64 % 1005,7 hPa 0,0 l/m 0,0 km/h W-SW 2,6 C 9,0 C 0,0 km/h
30.05.2013 09:00 14,2 C 80 % 1005,9 hPa 0,0 l/m 3,9 km/h W-SW 10,8 C 14,2 C 2,2 km/h
30.05.2013 10:00 16,6 C 67 % 1005,8 hPa 0,0 l/m 3,9 km/h W-NW 10,4 C 16,6 C 2,2 km/h
30.05.2013 11:00 16,8 C 59 % 1005,6 hPa 0,0 l/m 11,0 km/h NW 8,7 C 14,7 C 6,1 km/h
30.05.2013 12:00 18,7 C 57 % 1005,4 hPa 0,0 l/m 11,0 km/h N-NO 10,0 C 16,9 C 6,1 km/h
30.05.2013 13:00 17,9 C 54 % 1005,7 hPa 0,0 l/m 3,9 km/h O-NO 8,5 C 17,9 C 2,2 km/h
30.05.2013 14:00 17,1 C 55 % 1005,5 hPa 0,0 l/m 0,0 km/h O-NO 8,0 C 17,1 C 0,0 km/h
30.05.2013 15:00 20,5 C 45 % 1005,1 hPa 0,0 l/m 0,0 km/h O-NO 8,2 C 20,5 C 0,0 km/h
30.05.2013 16:00 24,1 C 37 % 1004,9 hPa 0,0 l/m 0,6 km/h O-NO 8,5 C 24,1 C 0,4 km/h
30.05.2013 17:00 26,1 C 34 % 1004,7 hPa 0,0 l/m 0,0 km/h NO 9,0 C 26,1 C 0,0 km/h
30.05.2013 18:00 21,5 C 39 % 1004,6 hPa 0,0 l/m 1,9 km/h N 7,0 C 21,5 C 1,1 km/h
30.05.2013 19:00 18,1 C 45 % 1004,7 hPa 0,0 l/m 12,3 km/h O-NO 6,0 C 15,7 C 6,8 km/h
30.05.2013 20:00 15,1 C 57 % 1005,5 hPa 0,0 l/m 0,0 km/h O-NO 6,6 C 15,1 C 0,0 km/h
30.05.2013 21:00 12,0 C 64 % 1005,8 hPa 0,0 l/m 0,0 km/h O 5,4 C 12,0 C 0,0 km/h
30.05.2013 22:00 9,3 C 74 % 1006,4 hPa 0,0 l/m 0,0 km/h SO 4,9 C 9,3 C 0,0 km/h
30.05.2013 23:00 9,2 C 81 % 1006,3 hPa 0,0 l/m 0,0 km/h O-SO 6,1 C 9,2 C 0,0 km/h
31.05.2013 00:00 9,8 C 82 % 1006,5 hPa 0,0 l/m 0,0 km/h O-SO 6,9 C 9,8 C 0,0 km/h
31.05.2013 01:00 9,8 C 83 % 1006,5 hPa 0,5 l/m 0,0 km/h S-SO 7,1 C 9,8 C 0,0 km/h
31.05.2013 02:00 9,6 C 83 % 1006,4 hPa 0,0 l/m 0,0 km/h O-SO 6,9 C 9,6 C 0,0 km/h
31.05.2013 03:00 9,6 C 83 % 1006,2 hPa 0,0 l/m 0,0 km/h NW 6,9 C 9,6 C 0,0 km/h
31.05.2013 04:00 9,6 C 83 % 1005,8 hPa 0,5 l/m 0,0 km/h N-NW 6,9 C 9,6 C 0,0 km/h
31.05.2013 05:00 9,2 C 81 % 1005,6 hPa 2,6 l/m 0,0 km/h W-NW 6,1 C 9,2 C 0,0 km/h
31.05.2013 06:00 9,1 C 78 % 1005,3 hPa 1,0 l/m 1,9 km/h NW 5,5 C 9,1 C 1,1 km/h
31.05.2013 07:00 9,1 C 75 % 1005,0 hPa 1,0 l/m 2,6 km/h NW 4,9 C 9,1 C 1,4 km/h
31.05.2013 08:00 9,3 C 73 % 1005,0 hPa 1,6 l/m 1,3 km/h W 4,7 C 9,3 C 0,7 km/h
31.05.2013 09:00 9,2 C 73 % 1004,8 hPa 2,1 l/m 14,3 km/h W-NW 4,6 C 4,5 C 7,9 km/h
31.05.2013 10:00 9,3 C 73 % 1004,6 hPa 2,6 l/m 5,8 km/h W 4,7 C 9,3 C 3,2 km/h
31.05.2013 11:00 9,3 C 74 % 1004,2 hPa 2,1 l/m 17,5 km/h W-NW 4,9 C 3,3 C 9,7 km/h
31.05.2013 12:00 9,5 C 74 % 1004,0 hPa 3,1 l/m 0,6 km/h W 5,1 C 9,5 C 0,4 km/h
31.05.2013 13:00 9,6 C 74 % 1004,2 hPa 3,1 l/m 3,9 km/h W 5,2 C 9,6 C 2,2 km/h
31.05.2013 14:00 10,5 C 72 % 1004,3 hPa 2,1 l/m 1,9 km/h W 5,7 C 10,5 C 1,1 km/h
31.05.2013 15:00 10,8 C 72 % 1004,5 hPa 0,5 l/m 2,6 km/h W-SW 6,0 C 10,8 C 1,4 km/h
31.05.2013 16:00 11,0 C 70 % 1004,5 hPa 1,0 l/m 7,1 km/h N-NW 5,7 C 10,5 C 4,0 km/h
31.05.2013 17:00 11,3 C 68 % 1004,8 hPa 0,5 l/m 4,5 km/h SW 5,6 C 11,3 C 2,5 km/h
31.05.2013 18:00 11,6 C 68 % 1005,4 hPa 1,6 l/m 0,0 km/h SW 5,9 C 11,6 C 0,0 km/h
31.05.2013 19:00 11,8 C 68 % 1005,7 hPa 0,5 l/m 0,0 km/h S 6,1 C 11,8 C 0,0 km/h
31.05.2013 20:00 11,9 C 68 % 1006,0 hPa 0,5 l/m 0,0 km/h S-SO 6,2 C 11,9 C 0,0 km/h
31.05.2013 21:00 11,9 C 68 % 1006,1 hPa 1,0 l/m 2,6 km/h W 6,2 C 11,9 C 1,4 km/h
31.05.2013 22:00 12,2 C 65 % 1006,9 hPa 3,1 l/m 0,0 km/h W-SW 5,8 C 12,2 C 0,0 km/h
31.05.2013 23:00 12,3 C 63 % 1006,5 hPa 1,0 l/m 0,0 km/h W-SW 5,5 C 12,3 C 0,0 km/h
01.06.2013 00:00 12,2 C 62 % 1006,8 hPa 0,0 l/m 1,9 km/h O 5,1 C 12,2 C 1,1 km/h
01.06.2013 01:00 12,1 C 62 % 1007,0 hPa 0,0 l/m 0,0 km/h O 5,0 C 12,1 C 0,0 km/h
01.06.2013 02:00 11,9 C 62 % 1007,4 hPa 0,0 l/m 0,0 km/h O-NO 4,9 C 11,9 C 0,0 km/h
01.06.2013 03:00 12,3 C 62 % 1007,4 hPa 0,0 l/m 0,0 km/h NO 5,2 C 12,3 C 0,0 km/h
01.06.2013 04:00 12,3 C 62 % 1007,9 hPa 0,5 l/m 0,0 km/h O-SO 5,2 C 12,3 C 0,0 km/h
01.06.2013 05:00 11,8 C 63 % 1008,2 hPa 0,5 l/m 0,0 km/h S-SO 5,0 C 11,8 C 0,0 km/h
01.06.2013 06:00 11,6 C 62 % 1009,0 hPa 3,6 l/m 0,0 km/h S-SO 4,6 C 11,6 C 0,0 km/h
01.06.2013 07:00 11,7 C 62 % 1009,6 hPa 3,6 l/m 0,0 km/h NW 4,7 C 11,7 C 0,0 km/h
01.06.2013 08:00 11,9 C 61 % 1010,2 hPa 4,1 l/m 1,3 km/h NW 4,6 C 11,9 C 0,7 km/h
01.06.2013 09:00 11,5 C 60 % 1010,9 hPa 1,6 l/m 0,0 km/h N-NW 4,0 C 11,5 C 0,0 km/h
01.06.2013 10:00 11,8 C 59 % 1011,3 hPa 5,7 l/m 0,0 km/h NW 4,1 C 11,8 C 0,0 km/h
01.06.2013 11:00 12,1 C 59 % 1011,4 hPa 1,6 l/m 6,5 km/h N-NW 4,3 C 12,1 C 3,6 km/h
01.06.2013 12:00 12,1 C 59 % 1011,9 hPa 3,1 l/m 0,0 km/h W 4,3 C 12,1 C 0,0 km/h
01.06.2013 13:00 12,4 C 60 % 1012,2 hPa 1,0 l/m 0,0 km/h W 4,9 C 12,4 C 0,0 km/h
01.06.2013 14:00 12,9 C 63 % 1012,6 hPa 0,5 l/m 0,0 km/h W-NW 6,0 C 12,9 C 0,0 km/h
01.06.2013 15:00 13,2 C 65 % 1012,7 hPa 0,5 l/m 0,0 km/h NW 6,8 C 13,2 C 0,0 km/h
01.06.2013 16:00 12,9 C 67 % 1013,1 hPa 0,0 l/m 0,0 km/h S-SW 6,9 C 12,9 C 0,0 km/h
01.06.2013 17:00 13,3 C 70 % 1013,3 hPa 0,0 l/m 0,0 km/h SW 7,9 C 13,3 C 0,0 km/h
01.06.2013 18:00 13,1 C 71 % 1013,4 hPa 0,0 l/m 0,0 km/h S-SW 8,0 C 13,1 C 0,0 km/h
01.06.2013 19:00 13,0 C 71 % 1013,7 hPa 0,0 l/m 0,0 km/h SW 7,9 C 13,0 C 0,0 km/h
01.06.2013 20:00 12,9 C 70 % 1014,0 hPa 0,5 l/m 0,0 km/h W 7,6 C 12,9 C 0,0 km/h
01.06.2013 21:00 12,8 C 69 % 1014,7 hPa 1,6 l/m 0,0 km/h W-SW 7,3 C 12,8 C 0,0 km/h
01.06.2013 22:00 12,4 C 68 % 1015,6 hPa 0,0 l/m 0,0 km/h S 6,7 C 12,4 C 0,0 km/h
01.06.2013 23:00 12,1 C 68 % 1015,5 hPa 0,0 l/m 0,0 km/h O-SO 6,4 C 12,1 C 0,0 km/h
02.06.2013 00:00 11,9 C 67 % 1016,0 hPa 0,0 l/m 0,0 km/h O-SO 6,0 C 11,9 C 0,0 km/h
02.06.2013 01:00 11,8 C 66 % 1016,2 hPa 0,0 l/m 0,0 km/h O-NO 5,7 C 11,8 C 0,0 km/h
02.06.2013 02:00 11,4 C 68 % 1016,5 hPa 0,0 l/m 3,2 km/h O-NO 5,7 C 11,4 C 1,8 km/h
02.06.2013 03:00 11,1 C 70 % 1016,7 hPa 0,0 l/m 0,0 km/h O 5,8 C 11,1 C 0,0 km/h
02.06.2013 04:00 10,7 C 70 % 1017,0 hPa 0,0 l/m 0,0 km/h SO 5,5 C 10,7 C 0,0 km/h
02.06.2013 05:00 10,6 C 69 % 1017,0 hPa 0,0 l/m 0,0 km/h SO 5,2 C 10,6 C 0,0 km/h
02.06.2013 06:00 10,6 C 69 % 1017,3 hPa 0,0 l/m 0,0 km/h NO 5,2 C 10,6 C 0,0 km/h
02.06.2013 07:00 11,2 C 71 % 1017,8 hPa 0,0 l/m 1,9 km/h NO 6,1 C 11,2 C 1,1 km/h
02.06.2013 08:00 11,5 C 84 % 1017,9 hPa 0,0 l/m 0,0 km/h O-NO 8,9 C 11,5 C 0,0 km/h
02.06.2013 09:00 11,9 C 84 % 1018,3 hPa 0,0 l/m 0,0 km/h O-NO 9,3 C 11,9 C 0,0 km/h
02.06.2013 10:00 17,9 C 71 % 1018,5 hPa 0,0 l/m 16,8 km/h O-NO 12,6 C 14,2 C 9,4 km/h
02.06.2013 11:00 17,1 C 65 % 1018,6 hPa 0,0 l/m 3,2 km/h O-NO 10,5 C 17,1 C 1,8 km/h
02.06.2013 12:00 19,1 C 57 % 1018,6 hPa 0,0 l/m 0,0 km/h NO 10,4 C 19,1 C 0,0 km/h
02.06.2013 13:00 20,2 C 53 % 1018,5 hPa 0,0 l/m 1,3 km/h N 10,3 C 20,2 C 0,7 km/h
02.06.2013 14:00 20,7 C 49 % 1018,9 hPa 0,0 l/m 7,1 km/h N-NW 9,6 C 20,4 C 4,0 km/h
02.06.2013 15:00 23,6 C 42 % 1019,0 hPa 0,0 l/m 9,1 km/h N-NO 9,9 C 22,8 C 5,0 km/h
02.06.2013 16:00 22,3 C 39 % 1018,9 hPa 0,0 l/m 0,6 km/h N-NO 7,7 C 22,3 C 0,4 km/h
02.06.2013 17:00 22,9 C 37 % 1018,7 hPa 0,0 l/m 0,0 km/h O-NO 7,4 C 22,9 C 0,0 km/h
02.06.2013 18:00 24,6 C 33 % 1018,6 hPa 0,0 l/m 5,8 km/h NO 7,2 C 24,6 C 3,2 km/h
02.06.2013 19:00 22,8 C 34 % 1018,8 hPa 0,0 l/m 0,6 km/h O-NO 6,1 C 22,8 C 0,4 km/h
02.06.2013 20:00 17,5 C 46 % 1019,3 hPa 0,0 l/m 0,0 km/h SO 5,8 C 17,5 C 0,0 km/h
02.06.2013 21:00 13,4 C 57 % 1020,0 hPa 0,0 l/m 0,0 km/h O-NO 5,1 C 13,4 C 0,0 km/h
02.06.2013 22:00 11,4 C 64 % 1020,9 hPa 0,0 l/m 0,0 km/h O-NO 4,8 C 11,4 C 0,0 km/h
02.06.2013 23:00 8,9 C 73 % 1021,1 hPa 0,0 l/m 0,0 km/h SO 4,3 C 8,9 C 0,0 km/h
Min-Datum _ 30.05.13 28.05.13 28.05.13 - 27.05.13 - 30.05.13 29.05.13 27.05.13
_ Min-Zeit 03:19 16:19 16:19 - 01:19 - 06:19 00:19 01:19
Minimum _ 4,9 C 30 % 997,9 hPa - 0,0 km/h - 2,1 C 0,5 C 0,0 km/h
Max-Datum _ 28.05.13 27.05.13 02.06.13 01.06.13 29.05.13 - 02.06.13 28.05.13 29.05.13
_ Max-Zeit 16:19 04:19 23:19 10:19 00:19 - 10:19 16:19 00:19
Maximum _ 28,9 C 84 % 1021,1 hPa 5,7 l/m 25,9 km/h
S-SW
- 12,6 C 28,9 C 14,4 km/h
S-SW
Durchschnitt _ 13,0 C 67 % 1008,0 hPa #80,8 l/m 2,9 km/h O-NO 6,6 C 12,5 C 1,6 km/h
www.sexauwetter.de